Time;durP1;ratioP1;P1;durP2;ratioP2;P2;SDS_P1;SDS_P2;PMS_P1;PMS_P2;Temp;Humidity;BMP_temperature;BMP_pressure;BME280_temperature;BME280_humidity;BME280_pressure;Samples;Min_cycle;Max_cycle;Signal;HPM_P1;HPM_P2
2023/04/25 00:02:22;;;;;;;11.07;7.05;;;14.60;51.60;;;;;;4978667;28;20029;-81
2023/04/25 00:04:48;;;;;;;10.52;6.60;;;14.50;51.90;;;;;;4978815;28;20106;-81
2023/04/25 00:07:14;;;;;;;17.25;8.15;;;14.50;52.00;;;;;;4989560;28;20031;-82
2023/04/25 00:09:41;;;;;;;13.00;7.13;;;14.50;52.20;;;;;;4989661;28;20030;-83
2023/04/25 00:12:07;;;;;;;9.75;5.93;;;14.50;52.40;;;;;;4981320;28;20027;-83
2023/04/25 00:14:36;;;;;;;17.25;8.32;;;14.50;52.70;;;;;;4957208;28;20022;-83
2023/04/25 00:17:05;;;;;;;15.98;8.27;;;14.50;53.10;;;;;;4979858;28;20074;-84
2023/04/25 00:19:32;;;;;;;11.93;7.70;;;14.40;54.40;;;;;;4961733;28;20027;-84
2023/04/25 00:21:58;;;;;;;19.93;9.57;;;14.30;54.70;;;;;;4964536;28;20023;-80
2023/04/25 00:24:24;;;;;;;17.30;9.60;;;14.20;54.90;;;;;;4974962;28;20031;-81
2023/04/25 00:26:49;;;;;;;19.08;8.75;;;14.10;55.00;;;;;;4975261;28;20058;-82
2023/04/25 00:29:15;;;;;;;18.73;8.55;;;14.20;55.90;;;;;;4974284;28;20031;-82
2023/04/25 00:31:41;;;;;;;15.35;8.68;;;14.20;55.40;;;;;;4956973;28;20073;-80
2023/04/25 00:34:08;;;;;;;19.17;9.07;;;14.30;55.00;;;;;;4984702;28;20023;-83
2023/04/25 00:36:34;;;;;;;11.48;7.78;;;14.30;55.70;;;;;;4977532;28;20124;-80
2023/04/25 00:38:59;;;;;;;16.65;7.80;;;14.40;55.40;;;;;;4974146;28;20456;-80
2023/04/25 00:41:26;;;;;;;14.23;8.98;;;14.40;55.40;;;;;;4974534;28;20085;-82
2023/04/25 00:43:54;;;;;;;11.43;7.00;;;14.30;57.00;;;;;;4974822;28;20097;-81
2023/04/25 00:46:20;;;;;;;20.98;8.73;;;14.30;55.80;;;;;;4974444;28;20424;-81
2023/04/25 00:48:46;;;;;;;20.55;9.50;;;14.20;56.10;;;;;;4957339;28;20026;-80
2023/04/25 00:51:18;;;;;;;18.05;8.65;;;14.30;56.60;;;;;;4956607;28;20031;-81
2023/04/25 00:53:45;;;;;;;13.52;8.13;;;14.30;56.40;;;;;;4973836;28;20495;-82
2023/04/25 00:56:11;;;;;;;14.10;8.15;;;14.30;55.90;;;;;;4974312;28;20058;-81
2023/04/25 00:58:38;;;;;;;18.10;9.13;;;14.20;56.20;;;;;;4975962;28;20479;-80
2023/04/25 01:01:04;;;;;;;24.30;9.73;;;14.20;56.20;;;;;;4974452;28;20408;-79
2023/04/25 01:03:40;;;;;;;20.75;9.15;;;14.20;56.50;;;;;;4988300;28;20621;-82
2023/04/25 01:06:09;;;;;;;14.68;8.57;;;14.10;57.00;;;;;;4973966;28;20050;-82
2023/04/25 01:08:37;;;;;;;17.33;9.18;;;14.00;57.10;;;;;;4974645;28;20027;-82
2023/04/25 01:11:02;;;;;;;16.55;9.02;;;14.00;57.30;;;;;;4974015;28;20030;-82
2023/04/25 01:13:29;;;;;;;13.90;7.82;;;13.90;57.60;;;;;;4973312;28;20384;-82
2023/04/25 01:15:55;;;;;;;13.88;7.95;;;13.90;57.40;;;;;;4981122;28;20038;-81
2023/04/25 01:18:21;;;;;;;17.10;8.20;;;13.80;57.70;;;;;;4974367;28;20094;-81
2023/04/25 01:20:49;;;;;;;17.52;9.25;;;13.80;57.90;;;;;;4973373;28;20114;-81
2023/04/25 01:23:15;;;;;;;14.68;8.85;;;13.80;57.90;;;;;;4956292;28;20380;-79
2023/04/25 01:25:42;;;;;;;12.05;8.57;;;13.80;57.90;;;;;;4973838;28;20053;-80
2023/04/25 01:28:08;;;;;;;11.45;8.55;;;13.90;58.10;;;;;;4973359;28;20498;-80
2023/04/25 01:30:35;;;;;;;15.32;9.88;;;13.90;58.10;;;;;;4973006;28;20055;-79
2023/04/25 01:33:04;;;;;;;20.60;9.70;;;14.00;58.20;;;;;;4973438;28;20026;-80
2023/04/25 01:35:30;;;;;;;16.35;9.48;;;14.00;58.00;;;;;;4973308;28;20030;-80
2023/04/25 01:37:56;;;;;;;12.75;8.70;;;14.10;57.80;;;;;;4988858;28;20026;-83
2023/04/25 01:40:22;;;;;;;12.65;8.60;;;14.10;57.60;;;;;;4981312;28;20388;-82
2023/04/25 01:42:49;;;;;;;15.20;9.57;;;14.10;57.50;;;;;;4967428;28;20391;-80
2023/04/25 01:45:14;;;;;;;16.02;9.32;;;14.10;57.50;;;;;;4983573;28;20042;-81
2023/04/25 01:47:42;;;;;;;15.02;9.00;;;14.20;57.50;;;;;;4974950;28;20391;-80
2023/04/25 01:50:09;;;;;;;16.85;8.75;;;14.20;57.50;;;;;;4987521;28;20050;-82
2023/04/25 01:52:35;;;;;;;13.15;8.55;;;14.20;57.70;;;;;;4975786;28;20073;-80
2023/04/25 01:55:02;;;;;;;18.13;9.43;;;14.20;57.50;;;;;;4974842;28;20043;-82
2023/04/25 01:57:28;;;;;;;16.83;9.23;;;14.10;57.60;;;;;;4981447;28;20045;-84
2023/04/25 02:00:06;;;;;;;17.17;9.77;;;14.10;57.80;;;;;;4998218;28;20113;-79
2023/04/25 02:02:32;;;;;;;21.55;9.48;;;14.20;57.80;;;;;;4988364;28;20026;-82
2023/04/25 02:04:58;;;;;;;20.65;9.38;;;14.20;57.70;;;;;;4999724;28;20561;-82
2023/04/25 02:07:25;;;;;;;16.25;8.98;;;14.20;57.60;;;;;;4986535;28;20026;-81
2023/04/25 02:09:51;;;;;;;17.45;10.88;;;14.20;57.60;;;;;;4969805;28;20034;-81
2023/04/25 02:12:17;;;;;;;13.55;9.18;;;14.20;57.70;;;;;;4978803;28;20026;-82
2023/04/25 02:14:43;;;;;;;17.95;9.27;;;14.20;57.70;;;;;;4976349;28;20023;-81
2023/04/25 02:17:09;;;;;;;16.02;9.93;;;14.20;57.60;;;;;;4980910;28;20030;-81
2023/04/25 02:19:35;;;;;;;15.15;7.88;;;14.20;58.20;;;;;;4978365;28;20102;-82
2023/04/25 02:22:01;;;;;;;14.68;8.98;;;14.20;57.50;;;;;;4977758;28;20065;-82
2023/04/25 02:24:27;;;;;;;14.65;9.30;;;14.20;57.50;;;;;;4977115;28;20022;-83
2023/04/25 02:26:55;;;;;;;15.88;7.97;;;14.20;57.50;;;;;;4979791;28;20023;-82
2023/04/25 02:29:21;;;;;;;11.88;8.55;;;14.20;57.60;;;;;;4989664;28;20391;-82
2023/04/25 02:31:47;;;;;;;15.73;9.38;;;14.20;57.50;;;;;;4978862;28;20085;-83
2023/04/25 02:34:13;;;;;;;14.50;9.30;;;14.20;57.50;;;;;;4978563;28;20022;-82
2023/04/25 02:36:39;;;;;;;17.15;9.32;;;14.20;57.30;;;;;;4980479;28;20019;-82
2023/04/25 02:39:05;;;;;;;18.27;9.73;;;14.30;57.30;;;;;;4981143;28;20423;-82
2023/04/25 02:41:31;;;;;;;20.58;8.88;;;14.30;57.30;;;;;;4980206;28;20022;-81
2023/04/25 02:43:57;;;;;;;13.98;8.45;;;14.40;57.10;;;;;;4979331;28;20027;-83
2023/04/25 02:46:22;;;;;;;15.60;9.50;;;14.40;56.90;;;;;;4977749;28;20042;-80
2023/04/25 02:48:48;;;;;;;25.23;10.23;;;14.40;57.00;;;;;;4978721;28;20026;-80
2023/04/25 02:51:16;;;;;;;18.40;8.85;;;14.50;57.20;;;;;;4979852;28;20031;-80
2023/04/25 02:53:42;;;;;;;18.17;9.63;;;14.50;57.20;;;;;;4979343;28;20381;-82
2023/04/25 02:56:07;;;;;;;11.27;8.55;;;14.50;57.00;;;;;;4979032;28;20031;-80
2023/04/25 02:58:33;;;;;;;18.00;8.70;;;14.50;56.80;;;;;;4976272;28;20031;-81
2023/04/25 03:01:00;;;;;;;13.23;8.35;;;14.60;56.70;;;;;;4976298;28;20031;-81
2023/04/25 03:03:26;;;;;;;18.23;10.48;;;14.60;56.80;;;;;;4976841;28;20023;-80
2023/04/25 03:05:52;;;;;;;29.15;9.73;;;14.60;56.80;;;;;;4975592;28;20077;-82
2023/04/25 03:08:18;;;;;;;27.45;10.50;;;14.60;57.40;;;;;;4976072;28;20093;-81
2023/04/25 03:10:45;;;;;;;17.92;10.80;;;14.60;57.50;;;;;;4978449;28;20022;-83
2023/04/25 03:13:11;;;;;;;16.40;9.33;;;14.60;57.20;;;;;;4976449;28;20022;-81
2023/04/25 03:15:37;;;;;;;20.90;10.60;;;14.60;57.10;;;;;;4975756;28;20023;-81
2023/04/25 03:18:03;;;;;;;23.25;9.85;;;14.70;57.40;;;;;;4975821;28;20034;-81
2023/04/25 03:20:30;;;;;;;20.17;9.98;;;14.70;57.30;;;;;;4957448;28;20489;-81
2023/04/25 03:22:56;;;;;;;20.52;10.40;;;14.70;57.50;;;;;;4972813;28;20027;-81
2023/04/25 03:25:21;;;;;;;20.30;9.52;;;14.70;57.40;;;;;;4976096;28;20035;-81
2023/04/25 03:27:50;;;;;;;23.95;9.82;;;14.70;57.40;;;;;;4957981;28;20127;-82
2023/04/25 03:30:16;;;;;;;25.17;10.60;;;14.70;57.50;;;;;;4976556;28;20109;-82
2023/04/25 03:32:41;;;;;;;22.42;10.52;;;14.70;57.50;;;;;;4961261;28;20065;-80
2023/04/25 03:35:08;;;;;;;23.17;11.15;;;14.70;57.50;;;;;;4979172;28;20030;-82
2023/04/25 03:37:34;;;;;;;24.48;11.15;;;14.70;57.50;;;;;;4961044;28;20101;-82
2023/04/25 03:39:59;;;;;;;19.90;10.30;;;14.70;57.70;;;;;;4994388;28;20022;-81
2023/04/25 03:42:25;;;;;;;18.40;11.50;;;14.70;57.90;;;;;;4991209;28;20041;-81
2023/04/25 03:44:52;;;;;;;22.23;12.00;;;14.80;57.90;;;;;;4977322;28;20092;-82
2023/04/25 03:47:18;;;;;;;20.77;11.33;;;14.90;58.00;;;;;;4984963;28;20030;-82
2023/04/25 03:49:44;;;;;;;20.52;13.45;;;14.90;58.00;;;;;;4985380;28;20380;-81
2023/04/25 03:52:10;;;;;;;20.65;12.27;;;14.90;58.10;;;;;;4964328;28;20038;-80
2023/04/25 03:54:36;;;;;;;19.85;11.60;;;14.90;58.20;;;;;;4988475;28;20027;-81
2023/04/25 03:57:01;;;;;;;21.65;12.30;;;14.90;58.30;;;;;;4978035;28;20102;-82
2023/04/25 03:59:27;;;;;;;20.52;13.23;;;14.90;58.60;;;;;;4975956;28;20387;-81
2023/04/25 04:01:54;;;;;;;19.13;10.80;;;14.90;58.60;;;;;;4957262;28;20077;-82
2023/04/25 04:04:20;;;;;;;18.48;11.77;;;15.10;59.20;;;;;;4972082;28;20047;-81
2023/04/25 04:06:46;;;;;;;24.80;14.25;;;15.10;58.60;;;;;;4963777;28;20389;-80
2023/04/25 04:09:12;;;;;;;21.67;12.20;;;15.10;58.90;;;;;;4976936;28;20392;-82
2023/04/25 04:11:39;;;;;;;17.75;11.77;;;15.10;59.00;;;;;;4967525;28;20024;-83
2023/04/25 04:14:07;;;;;;;17.92;12.80;;;15.20;58.80;;;;;;4965169;28;20145;-81
2023/04/25 04:16:33;;;;;;;21.70;12.00;;;15.20;59.10;;;;;;4974364;28;20023;-83
2023/04/25 04:18:59;;;;;;;16.95;12.27;;;15.20;59.00;;;;;;4974567;28;20031;-83
2023/04/25 04:21:27;;;;;;;20.67;11.43;;;15.20;59.00;;;;;;4974866;28;20027;-81
2023/04/25 04:23:54;;;;;;;;;;;15.00;59.50;;;;;;4975383;28;20022;-82
2023/04/25 04:26:23;;;;;;;21.08;12.18;;;14.90;59.40;;;;;;4957853;28;19939;-81
2023/04/25 04:28:54;;;;;;;27.63;13.27;;;15.00;59.90;;;;;;4983550;28;20097;-82
2023/04/25 04:31:23;;;;;;;24.77;13.20;;;15.10;59.90;;;;;;4979199;28;20113;-82
2023/04/25 04:33:50;;;;;;;22.45;12.82;;;15.20;59.90;;;;;;4974475;28;20503;-83
2023/04/25 04:36:19;;;;;;;18.35;12.35;;;15.30;59.60;;;;;;4980986;28;20066;-83
2023/04/25 04:38:45;;;;;;;15.50;12.13;;;15.40;59.80;;;;;;4988118;28;20018;-82
2023/04/25 04:41:11;;;;;;;21.52;12.98;;;15.60;59.40;;;;;;4974193;28;20039;-82
2023/04/25 04:43:39;;;;;;;15.48;11.57;;;15.90;58.80;;;;;;4957003;28;20437;-83
2023/04/25 04:46:05;;;;;;;17.70;11.85;;;16.20;57.90;;;;;;4976058;28;20043;-81
2023/04/25 04:48:34;;;;;;;17.52;11.82;;;16.70;57.30;;;;;;4974517;28;20018;-82
2023/04/25 04:51:00;;;;;;;21.27;11.52;;;17.80;54.60;;;;;;4976157;28;20388;-82
2023/04/25 04:53:27;;;;;;;15.75;13.07;;;17.90;54.40;;;;;;4956358;28;20558;-82
2023/04/25 04:55:53;;;;;;;14.98;11.10;;;18.80;52.00;;;;;;4974615;28;20023;-82
2023/04/25 04:58:19;;;;;;;17.30;10.45;;;18.70;52.10;;;;;;4974318;28;20030;-81
2023/04/25 05:00:45;;;;;;;16.17;11.60;;;19.10;51.10;;;;;;4957413;28;20022;-82
2023/04/25 05:03:11;;;;;;;15.32;10.85;;;19.40;50.20;;;;;;4975567;28;20069;-81
2023/04/25 05:05:39;;;;;;;20.38;13.35;;;20.00;49.80;;;;;;4973989;28;20069;-82
2023/04/25 05:08:06;;;;;;;20.02;11.80;;;20.80;48.60;;;;;;4956790;28;20026;-82
2023/04/25 05:10:31;;;;;;;19.10;11.35;;;21.70;47.20;;;;;;4974849;28;20023;-83
2023/04/25 05:13:00;;;;;;;15.27;10.23;;;22.40;45.70;;;;;;4985469;28;20026;-82
2023/04/25 05:15:25;;;;;;;20.33;10.75;;;22.60;44.00;;;;;;4973638;28;20043;-81
2023/04/25 05:17:51;;;;;;;29.00;11.52;;;22.30;44.40;;;;;;4973176;28;20472;-80
2023/04/25 05:20:18;;;;;;;18.70;10.95;;;22.80;44.20;;;;;;4974968;28;20090;-81
2023/04/25 05:22:45;;;;;;;23.00;11.75;;;23.30;43.30;;;;;;4987100;28;20069;-82
2023/04/25 05:25:11;;;;;;;18.20;10.40;;;23.80;42.80;;;;;;4962901;28;20043;-82
2023/04/25 05:27:37;;;;;;;23.63;10.75;;;24.40;41.50;;;;;;4945066;28;20461;-83
2023/04/25 05:30:03;;;;;;;20.25;10.13;;;24.40;40.60;;;;;;4977355;28;20042;-81
2023/04/25 05:32:28;;;;;;;17.85;10.48;;;23.50;41.60;;;;;;4974028;28;20022;-82
2023/04/25 05:34:54;;;;;;;30.48;11.15;;;23.20;42.50;;;;;;4970973;28;20028;-82
2023/04/25 05:37:20;;;;;;;21.52;12.20;;;23.20;42.80;;;;;;4973259;28;20144;-83
2023/04/25 05:39:46;;;;;;;22.88;12.57;;;22.90;42.70;;;;;;4974967;28;20480;-84
2023/04/25 05:42:12;;;;;;;25.83;11.80;;;23.10;43.70;;;;;;4957542;28;20054;-83
2023/04/25 05:44:38;;;;;;;23.85;11.88;;;24.20;42.80;;;;;;4982255;28;20030;-84
2023/04/25 05:47:04;;;;;;;21.45;10.60;;;26.00;40.80;;;;;;4968672;28;20031;-81
2023/04/25 05:49:31;;;;;;;24.25;12.45;;;27.40;39.10;;;;;;4983532;28;20015;-81
2023/04/25 05:51:56;;;;;;;21.80;11.60;;;28.30;37.00;;;;;;4952528;28;20428;-86
2023/04/25 05:54:22;;;;;;;22.58;10.63;;;28.60;36.80;;;;;;4969927;28;20050;-82
2023/04/25 05:56:48;;;;;;;22.20;13.40;;;29.10;36.20;;;;;;4968603;28;20023;-83
2023/04/25 05:59:14;;;;;;;25.10;11.68;;;29.90;35.80;;;;;;4967832;28;20043;-83
2023/04/25 06:01:40;;;;;;;19.67;11.38;;;30.40;35.00;;;;;;4965952;28;20030;-84
2023/04/25 06:04:06;;;;;;;17.27;10.60;;;30.70;34.40;;;;;;4970247;28;20481;-85
2023/04/25 06:06:32;;;;;;;17.40;8.73;;;31.40;34.00;;;;;;4973291;28;20026;-85
2023/04/25 06:08:58;;;;;;;16.13;9.00;;;32.10;32.80;;;;;;4967823;28;20492;-85
2023/04/25 06:11:23;;;;;;;13.88;8.23;;;31.90;32.30;;;;;;4973843;28;20031;-84
2023/04/25 06:13:49;;;;;;;18.07;9.33;;;31.80;32.20;;;;;;4958904;28;20022;-85
2023/04/25 06:16:15;;;;;;;18.60;8.60;;;31.20;32.30;;;;;;4973185;28;20106;-86
2023/04/25 06:18:41;;;;;;;14.23;8.80;;;31.30;32.90;;;;;;4974846;28;20046;-86
2023/04/25 06:21:07;;;;;;;15.47;9.00;;;31.50;32.00;;;;;;4975955;28;20023;-86
2023/04/25 06:23:33;;;;;;;14.53;8.13;;;30.90;33.00;;;;;;4982212;28;20102;-83
2023/04/25 06:25:58;;;;;;;14.23;8.65;;;31.10;32.10;;;;;;4979401;28;20035;-84
2023/04/25 06:28:24;;;;;;;18.57;9.23;;;31.70;31.90;;;;;;4986965;28;20026;-81
2023/04/25 06:30:51;;;;;;;16.03;8.50;;;32.40;31.40;;;;;;4972588;28;20030;-81
2023/04/25 06:33:16;;;;;;;12.75;8.55;;;32.70;30.90;;;;;;4972742;28;20011;-80
2023/04/25 06:35:43;;;;;;;15.90;8.23;;;32.70;30.60;;;;;;4973052;28;20054;-81
2023/04/25 06:38:09;;;;;;;14.23;8.48;;;33.00;30.80;;;;;;4973024;28;20114;-80
2023/04/25 06:40:34;;;;;;;14.80;8.57;;;33.70;31.10;;;;;;4972861;28;20162;-77
2023/04/25 06:43:00;;;;;;;22.73;9.20;;;34.20;29.90;;;;;;4963868;28;20307;-74
2023/04/25 06:45:27;;;;;;;13.30;7.87;;;34.40;29.60;;;;;;4973303;28;20045;-74
2023/04/25 06:47:53;;;;;;;20.23;8.20;;;34.90;29.60;;;;;;4975672;28;20518;-75
2023/04/25 06:50:19;;;;;;;15.47;8.30;;;35.30;29.00;;;;;;4975635;28;20051;-75
2023/04/25 06:52:45;;;;;;;12.57;8.03;;;35.50;28.70;;;;;;4975604;28;20050;-75
2023/04/25 06:55:11;;;;;;;16.83;7.15;;;35.60;28.80;;;;;;4957958;28;20125;-75
2023/04/25 06:57:37;;;;;;;13.30;5.77;;;36.20;28.50;;;;;;4975576;28;20029;-75
2023/04/25 07:00:05;;;;;;;11.27;6.83;;;36.50;27.90;;;;;;4958289;28;20440;-76
2023/04/25 07:02:31;;;;;;;17.20;7.25;;;36.00;27.70;;;;;;4972152;28;20050;-76
2023/04/25 07:04:59;;;;;;;18.43;8.67;;;35.80;28.10;;;;;;4963421;28;20460;-76
2023/04/25 07:07:25;;;;;;;16.15;8.77;;;36.10;28.40;;;;;;4975240;28;20259;-76
2023/04/25 07:09:51;;;;;;;22.55;9.52;;;36.60;28.40;;;;;;4975571;28;20455;-78
2023/04/25 07:12:17;;;;;;;17.53;7.90;;;36.70;28.20;;;;;;4977870;28;20027;-76
2023/04/25 07:14:43;;;;;;;19.83;9.55;;;37.10;28.10;;;;;;4982857;28;20261;-76
2023/04/25 07:17:09;;;;;;;13.37;7.87;;;37.20;27.90;;;;;;4974950;28;20077;-77
2023/04/25 07:19:34;;;;;;;16.37;8.63;;;36.20;28.00;;;;;;4972294;28;20277;-76
2023/04/25 07:22:00;;;;;;;20.13;7.97;;;36.30;28.40;;;;;;4970185;28;20781;-77
2023/04/25 07:24:26;;;;;;;14.50;7.88;;;36.60;28.20;;;;;;4969670;28;20023;-76
2023/04/25 07:26:52;;;;;;;14.07;7.65;;;37.40;28.40;;;;;;4965694;28;20043;-76
2023/04/25 07:29:18;;;;;;;13.80;6.63;;;37.90;27.40;;;;;;4968772;28;20492;-76
2023/04/25 07:31:44;;;;;;;24.55;7.25;;;38.00;27.60;;;;;;4973764;28;20042;-77
2023/04/25 07:34:10;;;;;;;15.05;5.78;;;37.50;26.90;;;;;;4974300;28;20058;-78
2023/04/25 07:36:35;;;;;;;11.15;4.75;;;37.30;27.20;;;;;;4974120;28;20030;-78
2023/04/25 07:39:01;;;;;;;19.00;9.02;;;36.90;27.70;;;;;;4972330;28;20031;-77
2023/04/25 07:41:27;;;;;;;14.90;6.05;;;37.20;27.90;;;;;;4968485;28;20077;-76
2023/04/25 07:43:53;;;;;;;19.77;7.97;;;37.60;27.30;;;;;;4968188;28;20023;-75
2023/04/25 07:46:18;;;;;;;13.40;4.88;;;38.00;27.50;;;;;;4969998;28;20042;-77
2023/04/25 07:48:44;;;;;;;10.95;6.30;;;37.90;27.20;;;;;;4965548;28;20377;-78
2023/04/25 07:51:10;;;;;;;12.52;5.90;;;37.70;27.20;;;;;;4961053;28;20034;-78
2023/04/25 07:53:37;;;;;;;11.32;5.85;;;37.90;27.50;;;;;;4967289;28;20065;-77
2023/04/25 07:56:03;;;;;;;20.23;6.88;;;38.20;27.20;;;;;;4968122;28;20536;-78
2023/04/25 07:58:29;;;;;;;10.77;5.65;;;38.40;27.50;;;;;;4967043;28;20579;-77
2023/04/25 08:00:55;;;;;;;17.30;6.63;;;38.20;27.00;;;;;;4966520;28;20086;-76
2023/04/25 08:03:21;;;;;;;11.40;5.72;;;38.20;27.50;;;;;;4969841;28;20035;-78
2023/04/25 08:05:46;;;;;;;20.15;6.78;;;38.00;27.10;;;;;;4969563;28;20050;-79
2023/04/25 08:08:12;;;;;;;14.43;5.28;;;37.00;27.60;;;;;;4969896;28;20073;-79
2023/04/25 08:10:38;;;;;;;13.98;6.07;;;36.60;27.90;;;;;;4970002;28;20046;-79
2023/04/25 08:13:04;;;;;;;8.38;5.82;;;35.70;28.10;;;;;;4969918;28;20085;-79
2023/04/25 08:15:33;;;;;;;14.10;5.67;;;33.20;28.70;;;;;;4953447;28;20419;-76
2023/04/25 08:17:59;;;;;;;16.50;7.53;;;30.30;30.40;;;;;;4975139;28;20022;-78
2023/04/25 08:20:25;;;;;;;11.57;6.60;;;28.70;32.60;;;;;;4975069;28;20496;-79
2023/04/25 08:22:51;;;;;;;13.60;5.97;;;27.80;34.20;;;;;;4974209;28;20261;-79
2023/04/25 08:25:28;;;;;;;16.70;6.05;;;28.40;34.70;;;;;;4973856;28;20045;-78
2023/04/25 08:27:55;;;;;;;13.98;5.32;;;30.70;32.90;;;;;;4970543;28;20058;-77
2023/04/25 08:30:21;;;;;;;12.48;6.35;;;32.80;31.00;;;;;;4970579;28;20050;-77
2023/04/25 08:32:47;;;;;;;16.23;5.87;;;34.30;29.90;;;;;;4971729;28;20035;-79
2023/04/25 08:35:13;;;;;;;17.17;6.40;;;34.60;29.00;;;;;;4969112;28;20038;-76
2023/04/25 08:37:39;;;;;;;19.00;6.70;;;33.30;29.40;;;;;;4973065;28;20033;-79
2023/04/25 08:40:06;;;;;;;9.83;5.93;;;31.60;30.80;;;;;;4970818;28;20085;-76
2023/04/25 08:42:36;;;;;;;13.85;5.80;;;31.10;31.40;;;;;;4972565;28;20622;-78
2023/04/25 08:45:06;;;;;;;13.90;5.63;;;31.60;31.20;;;;;;4970789;28;20035;-79
2023/04/25 08:47:34;;;;;;;20.70;6.07;;;32.00;30.50;;;;;;4972136;28;20431;-78
2023/04/25 08:50:02;;;;;;;13.80;5.22;;;31.80;30.80;;;;;;4971116;28;20450;-77
2023/04/25 08:52:35;;;;;;;13.20;5.53;;;31.60;30.70;;;;;;4971928;28;20106;-76
2023/04/25 08:55:02;;;;;;;12.05;5.32;;;30.70;30.90;;;;;;4971912;28;20034;-77
2023/04/25 08:57:30;;;;;;;19.20;5.45;;;30.10;31.70;;;;;;4970936;28;20015;-78
2023/04/25 08:59:58;;;;;;;9.68;4.88;;;30.10;31.90;;;;;;4972037;28;20076;-79
2023/04/25 09:02:24;;;;;;;8.50;4.78;;;30.50;31.30;;;;;;4970320;28;20030;-77
2023/04/25 09:04:51;;;;;;;11.43;5.22;;;30.80;30.60;;;;;;4972001;28;20563;-78
2023/04/25 09:07:20;;;;;;;13.52;4.97;;;30.80;30.80;;;;;;4971053;28;20077;-78
2023/04/25 09:09:46;;;;;;;5.22;2.97;;;31.40;29.30;;;;;;4973081;28;20032;-78
2023/04/25 09:12:12;;;;;;;10.17;3.60;;;31.10;28.90;;;;;;4970284;28;20030;-77
2023/04/25 09:14:38;;;;;;;23.45;4.55;;;30.80;29.00;;;;;;4973401;28;20022;-78
2023/04/25 09:17:07;;;;;;;6.32;2.80;;;30.20;29.30;;;;;;4955820;28;20033;-77
2023/04/25 09:19:37;;;;;;;5.70;3.25;;;29.10;30.00;;;;;;4955666;28;20105;-78
2023/04/25 09:22:04;;;;;;;5.93;3.30;;;29.20;30.10;;;;;;4955899;28;20400;-80
2023/04/25 09:24:35;;;;;;;10.40;3.20;;;29.60;29.60;;;;;;4973094;28;20022;-77
2023/04/25 09:27:04;;;;;;;6.25;3.40;;;29.60;30.00;;;;;;4955707;28;20031;-78
2023/04/25 09:29:36;;;;;;;7.18;4.00;;;29.80;30.30;;;;;;4973080;28;20077;-77
2023/04/25 09:32:21;;;;;;;7.93;3.85;;;30.80;30.40;;;;;;4973363;28;20030;-77
2023/04/25 09:34:50;;;;;;;5.63;3.90;;;32.30;29.50;;;;;;4973524;28;20027;-78
2023/04/25 09:37:27;;;;;;;8.65;3.80;;;33.70;29.00;;;;;;4973582;28;20589;-77
2023/04/25 09:40:05;;;;;;;7.93;4.10;;;34.40;28.50;;;;;;4955365;28;20030;-77
2023/04/25 09:42:34;;;;;;;8.05;4.57;;;35.70;27.80;;;;;;4972733;28;20062;-77
2023/04/25 09:45:04;;;;;;;10.63;4.60;;;36.30;27.50;;;;;;4970821;28;20034;-78
2023/04/25 09:47:30;;;;;;;6.63;4.93;;;37.30;27.40;;;;;;4969205;28;20023;-79
2023/04/25 09:49:56;;;;;;;;;;;37.70;26.70;;;;;;4969471;28;20042;-77
2023/04/25 09:52:23;;;;;;;;;;;37.80;27.40;;;;;;4966772;28;19906;-77
2023/04/25 09:54:50;;;;;;;8.18;4.75;;;38.10;27.50;;;;;;4969570;28;19906;-76
2023/04/25 09:57:19;;;;;;;7.40;4.03;;;38.20;26.40;;;;;;4965578;28;20023;-78
2023/04/25 09:59:53;;;;;;;7.95;4.68;;;37.20;26.00;;;;;;4967605;28;20445;-79
2023/04/25 10:02:24;;;;;;;10.18;5.85;;;35.70;26.80;;;;;;4968018;28;20023;-77
2023/04/25 10:04:54;;;;;;;10.43;5.50;;;34.90;27.30;;;;;;4968805;28;20042;-76
2023/04/25 10:07:23;;;;;;;12.30;5.75;;;33.60;27.80;;;;;;4965505;28;20027;-79
2023/04/25 10:09:51;;;;;;;11.55;5.28;;;32.20;28.60;;;;;;4963488;28;20503;-78
2023/04/25 10:12:18;;;;;;;11.25;6.15;;;31.20;29.30;;;;;;4966547;28;20476;-77
2023/04/25 10:14:45;;;;;;;11.23;5.43;;;31.30;29.90;;;;;;4967737;28;20035;-79
2023/04/25 10:17:11;;;;;;;13.30;5.07;;;32.10;29.30;;;;;;4972739;28;20037;-77
2023/04/25 10:19:37;;;;;;;9.30;4.93;;;33.30;29.20;;;;;;4972338;28;20034;-77
2023/04/25 10:22:12;;;;;;;11.20;5.03;;;33.60;27.90;;;;;;4976463;28;20062;-77
2023/04/25 10:24:39;;;;;;;10.88;4.78;;;32.20;28.50;;;;;;4976211;28;20027;-77
2023/04/25 10:27:06;;;;;;;14.00;5.75;;;;;;;;;;4976430;28;20105;-75
2023/04/25 10:29:32;;;;;;;8.63;4.72;;;30.40;29.50;;;;;;4976405;28;20026;-77
2023/04/25 10:31:58;;;;;;;7.07;4.32;;;28.00;31.60;;;;;;4976227;28;20066;-76
2023/04/25 10:34:38;;;;;;;5.60;3.53;;;26.90;32.40;;;;;;4964996;28;20023;-78
2023/04/25 10:37:04;;;;;;;8.95;3.67;;;26.00;32.80;;;;;;4959423;28;20039;-76
2023/04/25 10:39:30;;;;;;;6.63;4.15;;;25.40;33.80;;;;;;4943063;28;20515;-76
2023/04/25 10:41:57;;;;;;;8.90;4.15;;;24.60;34.10;;;;;;4964805;28;20549;-76
2023/04/25 10:44:28;;;;;;;8.50;4.15;;;23.70;35.90;;;;;;4968233;28;20027;-78
2023/04/25 10:46:59;;;;;;;7.93;4.25;;;23.10;36.50;;;;;;4964999;28;20512;-75
2023/04/25 10:49:36;;;;;;;8.68;5.20;;;22.70;37.70;;;;;;4945458;28;20080;-79
2023/04/25 10:52:13;;;;;;;12.63;4.65;;;22.70;38.30;;;;;;4963485;28;20023;-76
2023/04/25 10:54:47;;;;;;;11.43;4.57;;;22.70;38.20;;;;;;4968738;28;20027;-78
2023/04/25 10:57:40;;;;;;;17.02;6.72;;;22.80;38.30;;;;;;4964896;28;20384;-79
2023/04/25 11:00:06;;;;;;;17.70;5.90;;;22.30;38.80;;;;;;4962743;28;20392;-79
2023/04/25 11:02:36;;;;;;;10.15;5.35;;;22.10;39.90;;;;;;4945372;29;20023;-76
2023/04/25 11:05:03;;;;;;;12.02;4.88;;;22.00;39.40;;;;;;4967153;28;20043;-80
2023/04/25 11:07:59;;;;;;;5.85;3.88;;;22.10;39.50;;;;;;4965073;28;20023;-77
2023/04/25 11:10:30;;;;;;;8.45;4.78;;;22.20;38.50;;;;;;4944099;28;20057;-79
2023/04/25 11:12:56;;;;;;;7.18;3.72;;;22.30;39.00;;;;;;4962220;28;20019;-80
2023/04/25 11:15:22;;;;;;;6.85;4.07;;;22.30;38.70;;;;;;4965575;28;20023;-79
2023/04/25 11:17:50;;;;;;;8.60;3.95;;;22.30;39.00;;;;;;4975169;28;20023;-79
2023/04/25 11:20:16;;;;;;;10.27;4.13;;;22.20;39.00;;;;;;4975322;28;20042;-76
2023/04/25 11:22:45;;;;;;;7.97;5.65;;;21.90;39.40;;;;;;4975640;28;20015;-81
2023/04/25 11:25:13;;;;;;;6.63;3.90;;;21.90;39.50;;;;;;4975441;28;20400;-78
2023/04/25 11:27:51;;;;;;;9.23;4.80;;;22.00;39.60;;;;;;4975157;28;20093;-79
2023/04/25 11:30:17;;;;;;;8.88;4.35;;;22.00;39.50;;;;;;4976683;28;20094;-79
2023/04/25 11:32:44;;;;;;;8.05;4.65;;;21.80;40.20;;;;;;4975067;28;20400;-77
2023/04/25 11:35:10;;;;;;;7.45;4.00;;;21.90;40.20;;;;;;4975177;28;20027;-82
2023/04/25 11:37:39;;;;;;;9.10;6.18;;;21.90;39.90;;;;;;4975611;28;20114;-80
2023/04/25 11:40:12;;;;;;;6.80;3.60;;;21.90;40.10;;;;;;4975097;28;20030;-80
2023/04/25 11:42:44;;;;;;;9.70;3.95;;;22.00;39.70;;;;;;4975443;28;20033;-79
2023/04/25 11:45:10;;;;;;;10.27;3.90;;;21.90;39.70;;;;;;4975216;28;20512;-80
2023/04/25 11:47:36;;;;;;;12.57;4.45;;;21.80;40.00;;;;;;4975326;28;20033;-80
2023/04/25 11:50:07;;;;;;;11.38;4.07;;;21.70;40.30;;;;;;4970440;28;20023;-80
2023/04/25 11:52:41;;;;;;;6.10;3.65;;;21.80;40.20;;;;;;4951372;28;20102;-80
2023/04/25 11:55:10;;;;;;;9.05;3.22;;;21.80;40.70;;;;;;4963572;28;20039;-78
2023/04/25 11:57:39;;;;;;;7.85;3.78;;;21.80;40.70;;;;;;4966788;28;20117;-77
2023/04/25 12:00:07;;;;;;;7.90;3.47;;;21.60;40.40;;;;;;4969774;28;20031;-78
2023/04/25 12:02:35;;;;;;;5.60;3.42;;;;;;;;;;4965839;28;20023;-77
2023/04/25 12:05:03;;;;;;;8.07;3.78;;;;;;;;;;4969863;28;20038;-77
2023/04/25 12:07:31;;;;;;;6.88;3.47;;;;;;;;;;4968729;28;20022;-77
2023/04/25 12:09:58;;;;;;;6.10;3.67;;;;;;;;;;4957170;28;20046;-78
2023/04/25 12:12:28;;;;;;;6.82;3.78;;;;;;;;;;4984131;28;20481;-77
2023/04/25 12:14:55;;;;;;;6.50;3.40;;;;;;;;;;4974192;28;20026;-77
2023/04/25 12:17:21;;;;;;;8.65;4.20;;;;;;;;;;4975090;28;20018;-79
2023/04/25 12:19:47;;;;;;;8.70;3.78;;;;;;;;;;4943400;28;20023;-79
2023/04/25 12:22:24;;;;;;;7.03;3.80;;;;;;;;;;4957522;28;20368;-80
2023/04/25 12:24:53;;;;;;;13.30;4.60;;;;;;;;;;4972292;28;20026;-80
2023/04/25 12:27:18;;;;;;;7.78;4.32;;;21.60;40.10;;;;;;4972567;28;20026;-79
2023/04/25 12:29:55;;;;;;;13.02;4.00;;;21.20;42.10;;;;;;4970160;28;20034;-79
2023/04/25 12:32:21;;;;;;;7.65;3.72;;;21.10;42.40;;;;;;4961374;28;20538;-77
2023/04/25 12:34:47;;;;;;;8.85;4.00;;;21.00;41.90;;;;;;4952231;28;20041;-80
2023/04/25 12:37:13;;;;;;;14.10;3.92;;;21.00;42.10;;;;;;4970474;28;20476;-79
2023/04/25 12:39:39;;;;;;;7.25;4.50;;;21.10;42.60;;;;;;4974295;28;20023;-80
2023/04/25 12:42:07;;;;;;;10.02;5.28;;;21.10;43.00;;;;;;4970929;28;20106;-79